Map

Track Data

SID SEASON NUMBER BASIN SUBBASIN NAME ISO_TIME NATURE LAT LON WMO_WIND WMO_PRES WMO_AGENCY TRACK_TYPE DIST2LAND LANDFALL IFLAG USA_AGENCY USA_ATCF_ID USA_LAT USA_LON USA_RECORD USA_STATUS USA_WIND USA_PRES USA_SSHS USA_R34_NE USA_R34_SE USA_R34_SW USA_R34_NW USA_R50_NE USA_R50_SE USA_R50_SW USA_R50_NW USA_R64_NE USA_R64_SE USA_R64_SW USA_R64_NW USA_POCI USA_ROCI USA_RMW USA_EYE TOKYO_LAT TOKYO_LON TOKYO_GRADE TOKYO_WIND TOKYO_PRES TOKYO_R50_DIR TOKYO_R50_LONG TOKYO_R50_SHORT TOKYO_R30_DIR TOKYO_R30_LONG TOKYO_R30_SHORT TOKYO_LAND CMA_LAT CMA_LON CMA_CAT CMA_WIND CMA_PRES HKO_LAT HKO_LON HKO_CAT HKO_WIND HKO_PRES NEWDELHI_LAT NEWDELHI_LON NEWDELHI_GRADE NEWDELHI_WIND NEWDELHI_PRES NEWDELHI_CI NEWDELHI_DP NEWDELHI_POCI REUNION_LAT REUNION_LON REUNION_TYPE REUNION_WIND REUNION_PRES REUNION_TNUM REUNION_CI REUNION_RMW REUNION_R34_NE REUNION_R34_SE REUNION_R34_SW REUNION_R34_NW REUNION_R50_NE REUNION_R50_SE REUNION_R50_SW REUNION_R50_NW REUNION_R64_NE REUNION_R64_SE REUNION_R64_SW REUNION_R64_NW BOM_LAT BOM_LON BOM_TYPE BOM_WIND BOM_PRES BOM_TNUM BOM_CI BOM_RMW BOM_R34_NE BOM_R34_SE BOM_R34_SW BOM_R34_NW BOM_R50_NE BOM_R50_SE BOM_R50_SW BOM_R50_NW BOM_R64_NE BOM_R64_SE BOM_R64_SW BOM_R64_NW BOM_ROCI BOM_POCI BOM_EYE BOM_POS_METHOD BOM_PRES_METHOD NADI_LAT NADI_LON NADI_CAT NADI_WIND NADI_PRES WELLINGTON_LAT WELLINGTON_LON WELLINGTON_WIND WELLINGTON_PRES DS824_LAT DS824_LON DS824_STAGE DS824_WIND DS824_PRES TD9636_LAT TD9636_LON TD9636_STAGE TD9636_WIND TD9636_PRES TD9635_LAT TD9635_LON TD9635_WIND TD9635_PRES TD9635_ROCI NEUMANN_LAT NEUMANN_LON NEUMANN_CLASS NEUMANN_WIND NEUMANN_PRES MLC_LAT MLC_LON MLC_CLASS MLC_WIND MLC_PRES USA_GUST BOM_GUST BOM_GUST_PER REUNION_GUST REUNION_GUST_PER USA_SEAHGT USA_SEARAD_NE USA_SEARAD_SE USA_SEARAD_SW USA_SEARAD_NW STORM_SPEED STORM_DIR
1994037S12095 1994 12 SI WA IVY 1994-02-06 00:00:00 TS -12.1000 95.1000 main 1204 1204 O___________O_ jtwc_sh SH161994 -12.1000 95.1000 20 -1 -12.1000 95.1000 TC 20 6 248
1994037S12095 1994 12 SI WA IVY 1994-02-06 03:00:00 TS -12.2126 94.8076 main 1235 1235 P___________P_ SH161994 -12.2126 94.8076 20 -1 -12.2126 94.8076 TC 20 6 251
1994037S12095 1994 12 SI WA IVY 1994-02-06 06:00:00 TS -12.3000 94.5000 main 1265 1265 O___________O_ jtwc_sh SH161994 -12.3000 94.5000 20 -1 -12.3000 94.5000 TC 20 6 258
1994037S12095 1994 12 SI WA IVY 1994-02-06 09:00:00 TS -12.3500 94.1649 main 1288 1288 P___________P_ SH161994 -12.3500 94.1649 20 -1 -12.3500 94.1649 TC 20 7 262
1994037S12095 1994 12 SI WA IVY 1994-02-06 12:00:00 TS -12.4000 93.8000 main 1323 1323 O___________O_ jtwc_sh SH161994 -12.4000 93.8000 20 -1 -12.4000 93.8000 TC 20 7 259
1994037S12095 1994 12 SI WA IVY 1994-02-06 15:00:00 TS -12.4924 93.4225 main 1353 1353 P___________P_ SH161994 -12.4924 93.4225 20 -1 -12.4924 93.4225 TC 20 8 256
1994037S12095 1994 12 SI WA IVY 1994-02-06 18:00:00 TS -12.6000 93.0000 main 1383 1383 O___________O_ jtwc_sh SH161994 -12.6000 93.0000 20 -1 -12.6000 93.0000 TC 20 9 257
1994037S12095 1994 12 SI WA IVY 1994-02-06 21:00:00 TS -12.7000 92.5150 main 1420 1420 P___________P_ SH161994 -12.7000 92.5150 22 -1 -12.7000 92.5150 TC 22 10 258
1994037S12095 1994 12 SI WA IVY 1994-02-07 00:00:00 TS -12.8000 92.0000 main 1457 1457 O___________O_ jtwc_sh SH161994 -12.8000 92.0000 25 -1 -12.8000 92.0000 TC 25 10 258
1994037S12095 1994 12 SI WA IVY 1994-02-07 03:00:00 TS -12.9074 91.5000 main 1496 1496 P___________P_ SH161994 -12.9074 91.5000 25 -1 -12.9074 91.5000 TC 25 10 258
1994037S12095 1994 12 SI WA IVY 1994-02-07 06:00:00 TS -13.0000 91.0000 main 1536 1536 O___________O_ jtwc_sh SH161994 -13.0000 91.0000 25 -1 -13.0000 91.0000 TC 25 10 261
1994037S12095 1994 12 SI WA IVY 1994-02-07 09:00:00 TS -13.0574 90.4924 main 1577 1577 P___________P_ SH161994 -13.0574 90.4924 25 -1 -13.0574 90.4924 TC 25 10 264
1994037S12095 1994 12 SI WA IVY 1994-02-07 12:00:00 TS -13.1000 90.0000 main 1610 1610 O___________O_ jtwc_sh SH161994 -13.1000 90.0000 25 -1 -13.1000 90.0000 TC 25 9 264
1994037S12095 1994 12 SI MM IVY 1994-02-07 15:00:00 TS -13.1499 89.5425 main 1644 1644 P___________P_ SH161994 -13.1499 89.5425 25 -1 -13.1499 89.5425 TC 25 9 263
1994037S12095 1994 12 SI MM IVY 1994-02-07 18:00:00 TS -13.2000 89.1000 main 1680 1680 O___________O_ jtwc_sh SH161994 -13.2000 89.1000 25 -1 -13.2000 89.1000 TC 25 9 263
1994037S12095 1994 12 SI MM IVY 1994-02-07 21:00:00 TS -13.2500 88.6425 main 1716 1716 P___________P_ SH161994 -13.2500 88.6425 25 -1 -13.2500 88.6425 TC 25 9 263
1994037S12095 1994 12 SI MM IVY 1994-02-08 00:00:00 TS -13.3000 88.2000 main 1754 1754 O___________O_ jtwc_sh SH161994 -13.3000 88.2000 25 -1 -13.3000 88.2000 TC 25 8 263
1994037S12095 1994 12 SI MM IVY 1994-02-08 03:00:00 TS -13.3497 87.8224 main 1784 1784 P___________P_ SH161994 -13.3497 87.8224 25 -1 -13.3497 87.8224 TC 25 8 263
1994037S12095 1994 12 SI MM IVY 1994-02-08 06:00:00 TS -13.4000 87.4000 main 1822 1822 O___________O_ jtwc_sh SH161994 -13.4000 87.4000 25 -1 -13.4000 87.4000 TC 25 10 264
1994037S12095 1994 12 SI MM IVY 1994-02-08 09:00:00 TS -13.4575 86.8375 main 1876 1876 P___________P_ SH161994 -13.4575 86.8375 25 -1 -13.4575 86.8375 TC 25 12 268
1994037S12095 1994 12 SI MM IVY 1994-02-08 12:00:00 TS -13.4444 86.2111 25 1000 reunion main 1916 1916 O____O______O_ jtwc_sh SH161994 -13.5000 86.2000 25 -1 -13.0000 86.3000 2 25 1000 2.00000 2.00000 -13.5000 86.2000 TC 25 12 274
1994037S12095 1994 12 SI MM IVY 1994-02-08 15:00:00 TS -13.3745 85.5719 main 1965 1965 P____P______P_ SH161994 -13.5074 85.5499 25 -1 -12.8427 85.6598 2 25 1000 -13.5074 85.5499 TC 25 13 277
1994037S12095 1994 12 SI MM IVY 1994-02-08 18:00:00 TS -13.2818 84.9273 25 1000 reunion main 2016 2016 O____O______O_ jtwc_sh SH161994 -13.5000 84.9000 25 -1 -12.7000 85.0000 2 25 1000 2.00000 2.00000 -13.5000 84.9000 TC 25 13 278
1994037S12095 1994 12 SI MM IVY 1994-02-08 21:00:00 TS -13.1999 84.2967 main 2060 2060 P____P______P_ SH161994 -13.5074 84.2851 25 -1 -12.5850 84.3200 2 26 999 -13.5074 84.2851 TC 25 12 276
1994037S12095 1994 12 SI MM IVY 1994-02-09 00:00:00 TS -13.1667 83.7000 28 998 reunion main 2112 2112 O____O______O_ jtwc_sh SH161994 -13.5000 83.7000 25 -1 -12.5000 83.7000 2 28 998 2.50000 2.50000 -13.5000 83.7000 TC 25 11 274
1994037S12095 1994 12 SI MM IVY 1994-02-09 03:00:00 TS -13.1215 83.1659 main 2148 2141 P____P______P_ SH161994 -13.4573 83.1425 25 -1 -12.4498 83.2126 2 28 998 -13.4573 83.1425 TC 25 10 276
1994037S12095 1994 12 SI MM IVY 1994-02-09 06:00:00 TS -13.0667 82.6667 28 998 reunion main 2141 2124 O____O______O_ jtwc_sh SH161994 -13.4000 82.6000 25 -1 -12.4000 82.8000 2 28 998 2.50000 2.50000 -13.4000 82.6000 TC 25 10 277
1994037S12095 1994 12 SI MM IVY 1994-02-09 09:00:00 TS -13.0048 82.1767 main 2124 2109 P____P______P_ SH161994 -13.3573 82.0576 27 -1 -12.2998 82.4150 2 29 997 -13.3573 82.0576 TC 27 10 278
1994037S12095 1994 12 SI MM IVY 1994-02-09 12:00:00 TS -12.9333 81.6667 30 996 reunion main 2109 2107 O____O______O_ jtwc_sh SH161994 -13.3000 81.5000 30 -1 -12.2000 82.0000 2 30 996 2.50000 2.50000 -13.3000 81.5000 TC 30 11 278
1994037S12095 1994 12 SI MM IVY 1994-02-09 15:00:00 TS -12.8550 81.0783 main 2107 2095 P____P______P_ SH161994 -13.2150 80.9000 30 -1 -12.1352 81.4350 2 30 996 -13.2150 80.9000 TC 30 12 278
1994037S12095 1994 12 SI MM IVY 1994-02-09 18:00:00 TS -12.7667 80.5000 30 996 reunion main 2095 2084 O____O______O_ jtwc_sh SH161994 -13.1000 80.3000 30 -1 -12.1000 80.9000 2 30 996 2.50000 2.50000 -13.1000 80.3000 TC 30 11 280
1994037S12095 1994 12 SI MM IVY 1994-02-09 21:00:00 TS -12.6716 80.0059 main 2085 2074 P____P______P_ SH161994 -12.9575 79.7200 32 -1 -12.0998 80.5776 2 30 996 -12.9575 79.7200 TC 32 9 282
1994037S12095 1994 12 SI MM IVY 1994-02-10 00:00:00 TS -12.5667 79.5667 30 996 reunion main 2075 2065 O____O______O_ jtwc_sh SH161994 -12.8000 79.2000 35 0 -12.1000 80.3000 2 30 996 2.50000 2.50000 -12.8000 79.2000 TC 35 9 285
1994037S12095 1994 12 SI MM IVY 1994-02-10 03:00:00 TS -12.4499 79.1467 main 2057 2048 P____P______P_ SH161994 -12.6499 78.7626 35 0 -12.0500 79.9149 2 32 994 -12.6499 78.7626 TC 35 8 287
1994037S12095 1994 12 SI MM IVY 1994-02-10 06:00:00 TS -12.3333 78.7667 35 992 reunion main 2048 2041 O____O______O_ jtwc_sh SH161994 -12.5000 78.4000 35 0 -12.0000 79.5000 3 35 992 3.00000 3.00000 -12.5000 78.4000 TC 35 7 287
1994037S12095 1994 12 SI MM IVY 1994-02-10 09:00:00 TS -12.2357 78.4259 main 2042 2035 P____P______P_ SH161994 -12.3574 78.0851 35 0 -11.9924 79.1075 3 35 992 -12.3574 78.0851 TC 35 7 287
1994037S12095 1994 12 SI MM IVY 1994-02-10 12:00:00 TS -12.1333 78.1000 35 992 reunion main 2035 2027 O____O______O_ jtwc_sh SH161994 -12.2000 77.8000 35 0 -12.0000 78.7000 3 35 992 3.00000 3.00000 -12.2000 77.8000 TC 35 7 289
1994037S12095 1994 12 SI MM IVY 1994-02-10 15:00:00 TS -12.0025 77.7400 main 2031 2021 P____P______P_ SH161994 -12.0000 77.4850 37 0 -12.0075 78.2500 3 35 992 -12.0000 77.4850 TC 37 7 291
1994037S12095 1994 12 SI MM IVY 1994-02-10 18:00:00 TS -11.8667 77.4000 35 992 reunion main 2025 2016 O____O______O_ jtwc_sh SH161994 -11.8000 77.2000 40 0 -12.0000 77.8000 3 35 992 3.00000 3.00000 -11.8000 77.2000 TC 40 7 292
1994037S12095 1994 12 SI MM IVY 1994-02-10 21:00:00 TS -11.7500 77.1058 main 2009 2003 P____P______P_ SH161994 -11.6500 76.9625 40 0 -11.9499 77.3925 3 35 992 -11.6500 76.9625 TC 40 6 294
1994037S12095 1994 12 SI MM IVY 1994-02-11 00:00:00 TS -11.6333 76.8667 35 992 reunion main 2003 1994 O____O______O_ jtwc_sh SH161994 -11.5000 76.8000 40 0 -11.9000 77.0000 3 35 992 3.00000 3.00000 -11.5000 76.8000 TC 40 5 305
1994037S12095 1994 12 SI MM IVY 1994-02-11 03:00:00 TS -11.4800 76.7050 main 1996 1985 P____P______P_ SH161994 -11.2774 76.7651 40 0 -11.8850 76.5850 3 35 992 -11.2774 76.7651 TC 40 4 309
1994037S12095 1994 12 SI MM IVY 1994-02-11 06:00:00 TS -11.3667 76.5333 35 992 reunion main 1990 1979 O____O______O_ jtwc_sh SH161994 -11.1000 76.7000 40 0 -11.9000 76.2000 3 35 992 3.00000 3.00000 -11.1000 76.7000 TC 40 4 289
1994037S12095 1994 12 SI MM IVY 1994-02-11 09:00:00 TS -11.3407 76.2857 main 1985 1985 P____P______P_ SH161994 -11.0399 76.4674 40 0 -11.9423 75.9225 3 35 991 -11.0399 76.4674 TC 40 6 267
1994037S12095 1994 12 SI MM IVY 1994-02-11 12:00:00 TS -11.4000 75.9333 35 990 reunion main 2007 2007 O____O______O_ jtwc_sh SH161994 -11.1000 76.1000 40 0 -12.0000 75.6000 3 35 990 3.00000 3.00000 -11.1000 76.1000 TC 40 8 259
1994037S12095 1994 12 SI MM IVY 1994-02-11 15:00:00 TS -11.5025 75.4515 main 2029 2029 P____P______P_ SH161994 -11.2399 75.6523 42 0 -12.0278 75.0499 3 35 990 -11.2399 75.6523 TC 42 11 253
1994037S12095 1994 12 SI MM IVY 1994-02-11 18:00:00 TS -11.7000 74.9000 35 990 reunion main 2063 1999 O____O______O_ jtwc_sh SH161994 -11.5000 75.1000 45 0 -12.1000 74.5000 3 35 990 3.00000 3.00000 -11.5000 75.1000 TC 45 12 245
1994037S12095 1994 12 SI MM IVY 1994-02-11 21:00:00 TS -11.9983 74.3667 main 1999 1936 P____P______P_ SH161994 -11.8701 74.4576 47 0 -12.2547 74.1848 3 37 989 -11.8701 74.4576 TC 47 12 237
1994037S12095 1994 12 SI MM IVY 1994-02-12 00:00:00 TS -12.3667 73.8333 40 988 reunion main 1921 1857 O____O______O_ jtwc_sh SH161994 -12.3000 73.8000 50 0 -12.5000 73.9000 3 40 988 3.00000 3.00000 -12.3000 73.8000 TC 50 13 234
1994037S12095 1994 12 SI MM IVY 1994-02-12 03:00:00 TS -12.7348 73.3214 main 1857 1788 P____P______P_ SH161994 -12.6998 73.2348 52 0 -12.8049 73.4948 3 40 988 -12.6998 73.2348 TC 52 13 233
1994037S12095 1994 12 SI MM IVY 1994-02-12 06:00:00 TS -13.1333 72.8000 40 988 reunion main 1788 1719 O____O______O_ jtwc_sh SH161994 -13.1000 72.7000 55 0 -13.2000 73.0000 3 40 988 3.00000 3.00000 -13.1000 72.7000 TC 55 13 231
1994037S12095 1994 12 SI MM IVY 1994-02-12 09:00:00 TS -13.5741 72.2433 main 1704 1635 P____P______P_ SH161994 -13.5073 72.1648 57 0 -13.7077 72.4004 3 40 988 -13.5073 72.1648 TC 57 14 232
1994037S12095 1994 12 SI MM IVY 1994-02-12 12:00:00 TS -14.0000 71.6667 40 988 reunion main 1635 1562 O____O______O_ jtwc_sh SH161994 -13.9000 71.6000 60 0 -14.2000 71.8000 3 40 988 3.00000 3.00000 -13.9000 71.6000 TC 60 14 236
1994037S12095 1994 12 SI MM IVY 1994-02-12 15:00:00 TS -14.3382 71.0855 main 1562 1489 P____P______P_ SH161994 -14.2500 70.9573 62 0 -14.5147 71.3419 3 40 988 -14.2500 70.9573 TC 62 13 239
1994037S12095 1994 12 SI MM IVY 1994-02-12 18:00:00 TS -14.6667 70.5000 40 988 reunion main 1484 1421 O____O______O_ jtwc_sh SH161994 -14.6000 70.3000 65 1 -14.8000 70.9000 3 40 988 3.00000 3.00000 -14.6000 70.3000 TC 65 13 237
1994037S12095 1994 12 SI MM IVY 1994-02-12 21:00:00 TS -15.0690 69.9216 main 1407 1344 P____P______P_ SH161994 -15.0072 69.6999 65 1 -15.1925 70.3650 3 37 989 -15.0072 69.6999 TC 65 14 235
1994037S12095 1994 12 SI MM IVY 1994-02-13 00:00:00 TS -15.4667 69.3333 35 990 reunion main 1329 1257 O____O______O_ jtwc_sh SH161994 -15.4000 69.1000 65 1 -15.6000 69.8000 3 35 990 3.00000 3.00000 -15.4000 69.1000 TC 65 14 238
1994037S12095 1994 12 SI MM IVY 1994-02-13 03:00:00 TS -15.8083 68.7066 main 1257 1184 P____P______P_ SH161994 -15.7300 68.4424 65 1 -15.9650 69.2349 3 35 990 -15.7300 68.4424 TC 65 13 242
1994037S12095 1994 12 SI MM IVY 1994-02-13 06:00:00 TS -16.1000 68.1000 35 990 reunion main 1184 1126 O____O______O_ jtwc_sh SH161994 -16.0000 67.8000 65 1 -16.3000 68.7000 3 35 990 2.50000 3.00000 -16.0000 67.8000 TC 65 12 244
1994037S12095 1994 12 SI MM IVY 1994-02-13 09:00:00 TS -16.3506 67.5606 main 1122 1064 P____P______P_ SH161994 -16.2148 67.2198 62 0 -16.6222 68.2423 3 35 991 -16.2148 67.2198 TC 62 11 245
1994037S12095 1994 12 SI MM IVY 1994-02-13 12:00:00 TS -16.5667 67.0667 35 992 reunion main 1064 1006 O____O______O_ jtwc_sh SH161994 -16.4000 66.7000 60 0 -16.9000 67.8000 3 35 992 2.50000 3.00000 -16.4000 66.7000 TC 60 10 246
1994037S12095 1994 12 SI MM IVY 1994-02-13 15:00:00 TS -16.7742 66.5650 main 1006 958 P____P______P_ SH161994 -16.5925 66.1975 57 0 -17.1375 67.3000 3 35 991 -16.5925 66.1975 TC 57 10 246
1994037S12095 1994 12 SI MM IVY 1994-02-13 18:00:00 TS -16.9667 66.1333 35 990 reunion main 949 915 O____O______O_ jtwc_sh SH161994 -16.8000 65.8000 55 0 -17.3000 66.8000 3 35 990 3.00000 3.00000 -16.8000 65.8000 TC 55 8 242
1994037S12095 1994 12 SI MM IVY 1994-02-13 21:00:00 TS -17.1548 65.8323 main 910 886 P____P______P_ SH161994 -17.0498 65.5698 55 0 -17.3647 66.3572 3 37 989 -17.0498 65.5698 TC 55 7 236
1994037S12095 1994 12 SI MM IVY 1994-02-14 00:00:00 TS -17.3333 65.5667 40 988 reunion main 886 848 O____O______O_ jtwc_sh SH161994 -17.3000 65.4000 55 0 -17.4000 65.9000 3 40 988 3.00000 3.00000 -17.3000 65.4000 TC 55 7 238
1994037S12095 1994 12 SI MM IVY 1994-02-14 03:00:00 TS -17.5024 65.2441 main 839 801 P____P______P_ SH161994 -17.5148 65.1874 52 0 -17.4775 65.3574 3 42 986 -17.5148 65.1874 TC 52 7 243
1994037S12095 1994 12 SI MM IVY 1994-02-14 06:00:00 TS -17.6667 64.8667 45 985 reunion main 801 747 O____O______O_ jtwc_sh SH161994 -17.7000 64.9000 50 0 -17.6000 64.8000 3 45 985 3.50000 3.50000 -17.7000 64.9000 TC 50 9 248
1994037S12095 1994 12 SI MM IVY 1994-02-14 09:00:00 TS -17.8310 64.3900 main 747 700 P____P______P_ SH161994 -17.8502 64.4650 50 0 -17.7926 64.2402 3 45 985 -17.8502 64.4650 TC 50 10 249
1994037S12095 1994 12 SI MM IVY 1994-02-14 12:00:00 TS -18.0000 63.9333 45 985 reunion main 690 652 O____O______O_ jtwc_sh SH161994 -18.0000 64.0000 50 0 -18.0000 63.8000 3 45 985 3.50000 3.50000 -18.0000 64.0000 TC 50 8 245
1994037S12095 1994 12 SI MM IVY 1994-02-14 15:00:00 TS -18.1782 63.6124 main 652 624 P____P______P_ SH161994 -18.1924 63.6200 50 0 -18.1498 63.5973 3 45 985 -18.1924 63.6200 TC 50 7 236
1994037S12095 1994 12 SI MM IVY 1994-02-14 18:00:00 TS -18.3667 63.3667 45 985 reunion main 624 591 O____O______O_ jtwc_sh SH161994 -18.4000 63.3000 50 0 -18.3000 63.5000 3 45 985 3.50000 3.50000 -18.4000 63.3000 TC 50 6 231
1994037S12095 1994 12 SI MM IVY 1994-02-14 21:00:00 TS -18.5541 63.1299 main 587 560 P____P______P_ SH161994 -18.5849 63.0199 47 0 -18.4925 63.3500 3 47 982 -18.5849 63.0199 TC 47 6 226
1994037S12095 1994 12 SI MM IVY 1994-02-15 00:00:00 TS -18.7667 62.9333 50 980 reunion main 560 543 O____O______O_ jtwc_sh SH161994 -18.8000 62.8000 45 0 -18.7000 63.2000 3 50 980 4.00000 4.00000 -18.8000 62.8000 TC 45 6 216
1994037S12095 1994 12 SI MM IVY 1994-02-15 03:00:00 TS -19.0333 62.7658 main 543 514 P____P______P_ SH161994 -19.1000 62.6275 45 0 -18.9000 63.0425 3 50 980 -19.1000 62.6275 TC 45 6 208
1994037S12095 1994 12 SI MM IVY 1994-02-15 06:00:00 TS -19.3000 62.6333 50 980 reunion main 514 499 O____O______O_ jtwc_sh SH161994 -19.4000 62.5000 45 0 -19.1000 62.9000 3 50 980 4.00000 4.00000 -19.4000 62.5000 TC 45 5 206
1994037S12095 1994 12 SI MM IVY 1994-02-15 09:00:00 TS -19.5100 62.5133 main 499 485 P____P______P_ SH161994 -19.6150 62.3775 47 0 -19.3000 62.7850 3 52 977 -19.6150 62.3775 TC 47 4 205
1994037S12095 1994 12 SI MM IVY 1994-02-15 12:00:00 TS -19.7000 62.4333 55 975 reunion main 485 482 O____O______O_ jtwc_sh SH161994 -19.8000 62.3000 50 0 -19.5000 62.7000 3 55 975 4.00000 4.00000 -19.8000 62.3000 TC 50 4 197
1994037S12095 1994 12 SI MM IVY 1994-02-15 15:00:00 TS -19.8950 62.3942 main 482 480 P____P______P_ SH161994 -19.9925 62.2775 52 0 -19.7000 62.6275 3 57 972 -19.9925 62.2775 TC 52 4 185
1994037S12095 1994 12 SI MM IVY 1994-02-15 18:00:00 TS -20.1000 62.4000 60 970 reunion main 480 479 O____O______O_ jtwc_sh SH161994 -20.2000 62.3000 55 0 -19.9000 62.6000 3 60 970 4.50000 4.50000 -20.2000 62.3000 TC 55 4 174
1994037S12095 1994 12 SI MM IVY 1994-02-15 21:00:00 TS -20.3133 62.4400 main 479 479 P____P______P_ SH161994 -20.4350 62.3425 57 0 -20.0700 62.6350 3 62 967 -20.4350 62.3425 TC 57 5 168
1994037S12095 1994 12 SI MM IVY 1994-02-16 00:00:00 TS -20.5667 62.5000 65 965 reunion main 490 490 O____O______O_ jtwc_sh SH161994 -20.7000 62.4000 60 0 -20.3000 62.7000 4 65 965 4.50000 4.50000 -20.7000 62.4000 TC 60 6 170
1994037S12095 1994 12 SI MM IVY 1994-02-16 03:00:00 TS -20.8825 62.5450 main 493 493 P____P______P_ SH161994 -20.9925 62.4426 65 1 -20.6625 62.7500 4 67 960 -20.9925 62.4426 TC 65 7 172
1994037S12095 1994 12 SI MM IVY 1994-02-16 06:00:00 TS -21.2333 62.6000 70 955 reunion main 509 509 O____O______O_ jtwc_sh SH161994 -21.3000 62.5000 70 1 -21.1000 62.8000 4 70 955 5.00000 5.00000 -21.3000 62.5000 TC 70 7 169
1994037S12095 1994 12 SI MM IVY 1994-02-16 09:00:00 TS -21.5783 62.6957 main 529 529 P____P______P_ SH161994 -21.5925 62.6074 72 1 -21.5500 62.8723 4 70 955 -21.5925 62.6074 TC 72 7 168
1994037S12095 1994 12 SI MM IVY 1994-02-16 12:00:00 TS -21.9333 62.7667 70 955 reunion main 548 548 O____O______O_ jtwc_sh SH161994 -21.9000 62.7000 75 1 -22.0000 62.9000 4 70 955 5.00000 5.00000 -21.9000 62.7000 TC 75 7 176
1994037S12095 1994 12 SI MM IVY 1994-02-16 15:00:00 TS -22.3025 62.7559 main 564 558 P____P______P_ SH161994 -22.2425 62.7225 77 1 -22.4225 62.8227 4 72 952 -22.2425 62.7225 TC 77 7 185
1994037S12095 1994 12 SI MM IVY 1994-02-16 18:00:00 TS -22.6667 62.7000 75 950 reunion main 572 572 O____O______O_ jtwc_sh SH161994 -22.6000 62.7000 80 1 -22.8000 62.7000 4 75 950 5.00000 5.00000 -22.6000 62.7000 TC 80 7 188
1994037S12095 1994 12 SI MM IVY 1994-02-16 21:00:00 TS -23.0200 62.6408 main 577 577 P____P______P_ SH161994 -22.9650 62.6650 85 2 -23.1300 62.5925 4 75 950 -22.9650 62.6650 TC 85 7 191
1994037S12095 1994 12 SI MM IVY 1994-02-17 00:00:00 TS -23.3333 62.5667 75 950 reunion main 594 591 O____O______O_ jtwc_sh SH161994 -23.3000 62.6000 90 2 -23.4000 62.5000 4 75 950 5.00000 5.00000 -23.3000 62.6000 TC 90 6 194
1994037S12095 1994 12 SI MM IVY 1994-02-17 03:00:00 TS -23.5892 62.4833 main 603 601 P____P______P_ SH161994 -23.5800 62.5075 95 2 -23.6075 62.4350 4 75 950 -23.5800 62.5075 TC 95 5 198
1994037S12095 1994 12 SI MM IVY 1994-02-17 06:00:00 TS -23.8000 62.4000 75 950 reunion main 608 608 O____O______O_ jtwc_sh SH161994 -23.8000 62.4000 100 3 -23.8000 62.4000 4 75 950 5.00000 5.00000 -23.8000 62.4000 TC 100 4 198
1994037S12095 1994 12 SI MM IVY 1994-02-17 09:00:00 TS -24.0058 62.3333 main 613 613 P____P______P_ SH161994 -23.9725 62.3000 95 2 -24.0725 62.3999 4 72 952 -23.9725 62.3000 TC 95 4 198
1994037S12095 1994 12 SI MM IVY 1994-02-17 12:00:00 TS -24.1667 62.2667 70 955 reunion main 628 620 O____O______O_ jtwc_sh SH161994 -24.1000 62.2000 90 2 -24.3000 62.4000 4 70 955 4.50000 5.00000 -24.1000 62.2000 TC 90 3 208
1994037S12095 1994 12 SI MM IVY 1994-02-17 15:00:00 TS -24.2650 62.1808 main 627 620 P____P______P_ SH161994 -24.2075 62.0925 85 2 -24.3800 62.3575 4 70 955 -24.2075 62.0925 TC 85 2 223
1994037S12095 1994 12 SI MM IVY 1994-02-17 18:00:00 TS -24.3333 62.1000 70 955 reunion main 620 620 O____O______O_ jtwc_sh SH161994 -24.3000 62.0000 80 1 -24.4000 62.3000 4 70 955 4.50000 5.00000 -24.3000 62.0000 TC 80 2 219
1994037S12095 1994 12 SI MM IVY 1994-02-17 21:00:00 TS -24.4167 62.0475 main 620 620 P____P______P_ SH161994 -24.4000 61.9425 77 1 -24.4500 62.2575 4 67 960 -24.4000 61.9425 TC 77 2 209
1994037S12095 1994 12 SI MM IVY 1994-02-18 00:00:00 TS -24.5000 62.0000 65 965 reunion main 628 628 O____O______O_ jtwc_sh SH161994 -24.5000 61.9000 75 1 -24.5000 62.2000 4 65 965 4.00000 4.50000 -24.5000 61.9000 TC 75 2 213
1994037S12095 1994 12 SI MM IVY 1994-02-18 03:00:00 TS -24.5833 61.9333 main 629 629 P____P______P_ SH161994 -24.6000 61.8500 72 1 -24.5500 62.1000 4 62 967 -24.6000 61.8500 TC 72 2 216
1994037S12095 1994 12 SI MM IVY 1994-02-18 06:00:00 TS -24.6667 61.8667 60 970 reunion main 637 630 O____O______O_ jtwc_sh SH161994 -24.7000 61.8000 70 1 -24.6000 62.0000 3 60 970 4.00000 4.50000 -24.7000 61.8000 TC 70 2 213
1994037S12095 1994 12 SI MM IVY 1994-02-18 09:00:00 TS -24.7450 61.8191 main 630 630 P____P______P_ SH161994 -24.7925 61.7575 67 1 -24.6500 61.9425 3 57 972 -24.7925 61.7575 TC 67 2 209
1994037S12095 1994 12 SI MM IVY 1994-02-18 12:00:00 TS -24.8333 61.7667 55 975 reunion main 638 638 O____O______O_ jtwc_sh SH161994 -24.9000 61.7000 65 1 -24.7000 61.9000 3 55 975 3.50000 4.00000 -24.9000 61.7000 TC 65 2 210
1994037S12095 1994 12 SI MM IVY 1994-02-18 15:00:00 TS -24.9350 61.6958 main 640 640 P____P______P_ SH161994 -25.0350 61.6150 62 0 -24.7350 61.8575 3 52 977 -25.0350 61.6150 TC 62 3 213
1994037S12095 1994 12 SI MM IVY 1994-02-18 18:00:00 TS -25.0667 61.6000 50 980 reunion main 651 644 O____O______O_ jtwc_sh SH161994 -25.2000 61.5000 60 0 -24.8000 61.8000 3 50 980 3.50000 4.00000 -25.2000 61.5000 TC 60 4 214
1994037S12095 1994 12 SI MM IVY 1994-02-18 21:00:00 TS -25.2275 61.4791 main 653 653 P____P______P_ SH161994 -25.3850 61.3575 57 0 -24.9125 61.7224 3 47 982 -25.3850 61.3575 TC 57 4 213
1994037S12095 1994 12 SI MM IVY 1994-02-19 00:00:00 TS -25.4333 61.3333 45 985 reunion main 660 660 O____O______O_ jtwc_sh SH161994 -25.6000 61.2000 55 0 -25.1000 61.6000 3 45 985 3.00000 3.50000 -25.6000 61.2000 TC 55 5 211
1994037S12095 1994 12 SI MM IVY 1994-02-19 03:00:00 TS -25.6775 61.1791 main 682 677 P____P______P_ SH161994 -25.8425 61.0574 52 0 -25.3475 61.4223 3 45 985 -25.8425 61.0574 TC 52 6 210
1994037S12095 1994 12 SI MM IVY 1994-02-19 06:00:00 TS -25.9667 61.0000 45 985 reunion main 700 700 O____O______O_ jtwc_sh SH161994 -26.1000 60.9000 50 0 -25.7000 61.2000 3 45 985 2.50000 3.50000 -26.1000 60.9000 TC 50 7 209
1994037S12095 1994 12 SI MM IVY 1994-02-19 09:00:00 TS -26.2900 60.7957 main 721 721 P____P______P_ SH161994 -26.3500 60.7075 45 0 -26.1699 60.9723 3 40 988 -26.3500 60.7075 TC 45 8 209
1994037S12095 1994 12 SI MM IVY 1994-02-19 12:00:00 TS -26.6400 60.5800 35 992 reunion main 742 742 O____O______O_ jtwc_sh SH161994 -26.6000 60.5000 40 0 -26.7000 60.7000 3 35 992 2.50000 3.00000 -26.6000 60.5000 TC 40 8 210
1994037S12095 1994 12 SI MM IVY 1994-02-19 15:00:00 TS -27.0213 60.3312 main 773 773 P____P______P_ SH161994 -26.8500 60.2976 37 0 -27.1925 60.3648 3 32 993 -26.8500 60.2976 TC 37 10 210
1994037S12095 1994 12 SI MM IVY 1994-02-19 18:00:00 TS -27.5000 60.0333 30 995 reunion main 812 812 O____O______O_ jtwc_sh SH161994 -27.1000 60.1000 35 0 -27.7000 60.0000 2 30 995 2.00000 2.50000 -27.1000 60.1000 TC 35 14 207
1994037S12095 1994 12 SI MM IVY 1994-02-19 21:00:00 TS -28.2426 59.6276 main 860 860 _____P________ SH161994 -1 -28.2426 59.6276 2 30 995 TC 15 206
1994037S12095 1994 12 SI MM IVY 1994-02-20 00:00:00 TS -28.8000 59.3000 30 995 reunion main 906 906 _____O________ -1 -28.8000 59.3000 2 30 995 2.00000 2.50000 12 205
1994037S12095 1994 12 SI MM IVY 1994-02-20 03:00:00 TS -29.3499 59.0474 main 946 946 _____P________ -1 -29.3499 59.0474 2 29 996 12 198
1994037S12095 1994 12 SI MM IVY 1994-02-20 06:00:00 TS -29.9000 58.9000 28 998 reunion main 1005 1005 _____O________ -1 -29.9000 58.9000 2 28 998 2.00000 2.50000 11 187
1994037S12095 1994 12 SI MM IVY 1994-02-20 09:00:00 TS -30.4649 58.8843 main 1068 1068 _____P________ -1 -30.4649 58.8843 2 28 998 11 180
1994037S12095 1994 12 SI MM IVY 1994-02-20 12:00:00 TS -31.0000 58.9000 28 998 reunion main 1121 1121 _____O________ -1 -31.0000 58.9000 2 28 998 2.00000 2.50000 10 183
1994037S12095 1994 12 SI MM IVY 1994-02-20 15:00:00 TS -31.4575 58.8225 main 1171 1171 _____P________ -1 -31.4575 58.8225 2 9 191
1994037S12095 1994 12 SI MM IVY 1994-02-20 18:00:00 ET -31.9000 58.7000 reunion main 1212 1212 _____O________ -1 -31.9000 58.7000 5 9.90000 10 194
1994037S12095 1994 12 SI MM IVY 1994-02-20 21:00:00 ET -32.3850 58.5554 main 1263 1261 _____P________ -1 -32.3850 58.5554 5 10 194
1994037S12095 1994 12 SI MM IVY 1994-02-21 00:00:00 ET -32.9000 58.4000 reunion main 1313 _____O________ -1 -32.9000 58.4000 5 9.90000 11 194

About IBTrACS Database

This database is a web-friendly format of International Best Track Archive for Climate Stewardship (IBTrACS), a global best track data archive curated by NOAA dating back to 1842.

Updated: 2021-12-06